Time;durP1;ratioP1;P1;durP2;ratioP2;P2;SDS_P1;SDS_P2;PMS_P1;PMS_P2;Temp;Humidity;BMP_temperature;BMP_pressure;BME280_temperature;BME280_humidity;BME280_pressure;Samples;Min_cycle;Max_cycle;Signal;HPM_P1;HPM_P2
2022/10/23 00:01:43;;;;;;;28.98;21.40;;;;;;;14.22;80.99;101111.73;1736534;82;21511;-86
2022/10/23 00:04:14;;;;;;;42.88;32.28;;;;;;;14.20;80.91;101109.94;1717880;82;23038;-85
2022/10/23 00:06:40;;;;;;;33.02;23.32;;;;;;;14.14;80.74;101107.64;1685816;83;21640;-86
2022/10/23 00:09:08;;;;;;;39.65;26.65;;;;;;;14.12;80.88;101108.94;1720921;82;21605;-85
2022/10/23 00:11:34;;;;;;;62.88;47.83;;;;;;;14.10;80.92;101109.79;1714187;81;21516;-86
2022/10/23 00:14:03;;;;;;;39.30;29.48;;;;;;;14.09;80.93;101120.78;1706066;82;21077;-86
2022/10/23 00:16:30;;;;;;;29.95;22.02;;;;;;;14.07;80.98;101118.55;1697424;83;21768;-85
2022/10/23 00:18:57;;;;;;;38.00;26.87;;;;;;;14.05;80.97;101121.61;1747538;80;20968;-85
2022/10/23 00:21:24;;;;;;;22.62;16.95;;;;;;;14.05;81.00;101118.95;1738733;81;21042;-85
2022/10/23 00:23:51;;;;;;;56.00;39.48;;;;;;;14.05;81.02;101122.92;1738750;82;21010;-86
2022/10/23 00:26:18;;;;;;;46.75;34.53;;;;;;;14.06;81.07;101121.16;1738824;82;21478;-86
2022/10/23 00:28:50;;;;;;;41.92;27.30;;;;;;;14.07;81.10;101129.14;1738906;82;22862;-85
2022/10/23 00:31:17;;;;;;;29.05;17.87;;;;;;;14.08;81.09;101126.08;1738349;81;21125;-85
2022/10/23 00:33:45;;;;;;;28.15;18.15;;;;;;;14.10;81.13;101129.64;1738776;81;21018;-85
2022/10/23 00:36:14;;;;;;;47.98;30.08;;;;;;;14.10;81.14;101131.84;1717964;82;20999;-85
2022/10/23 00:38:41;;;;;;;28.17;17.07;;;;;;;14.13;81.11;101137.20;1717632;82;21428;-85
2022/10/23 00:41:16;;;;;;;25.15;15.63;;;;;;;14.13;81.07;101131.91;1738213;82;21026;-85
2022/10/23 00:44:00;;;;;;;33.90;21.60;;;;;;;14.12;81.11;101130.55;1718664;82;20971;-85
2022/10/23 00:46:27;;;;;;;41.18;25.48;;;;;;;14.15;81.08;101130.17;1707095;82;21090;-85
2022/10/23 00:48:54;;;;;;;40.63;23.75;;;;;;;14.16;81.07;101131.05;1684732;83;21021;-86
2022/10/23 00:51:20;;;;;;;29.40;18.45;;;;;;;14.15;80.98;101129.27;1730116;82;21117;-86
2022/10/23 00:53:48;;;;;;;31.95;20.12;;;;;;;14.13;80.96;101133.64;1736572;82;21790;-86
2022/10/23 00:56:15;;;;;;;22.35;14.03;;;;;;;14.11;80.96;101136.25;1737074;82;21548;-86
2022/10/23 00:58:42;;;;;;;19.87;11.95;;;;;;;14.09;80.91;101134.46;1736864;81;21081;-86
2022/10/23 01:01:18;;;;;;;25.95;17.17;;;;;;;14.05;80.79;101135.28;1737078;81;21074;-85
2022/10/23 01:03:45;;;;;;;29.15;18.77;;;;;;;13.96;80.67;101136.92;1673680;83;21114;-85
2022/10/23 01:06:41;;;;;;;22.42;12.05;;;;;;;13.83;80.48;101136.22;1677133;84;21732;-84
2022/10/23 01:09:30;;;;;;;46.48;31.60;;;;;;;13.70;80.54;101132.48;1770191;79;21053;-85
2022/10/23 01:12:32;;;;;;;53.87;35.85;;;;;;;13.57;80.66;101134.41;1773899;80;21100;-84
2022/10/23 01:15:31;;;;;;;37.75;24.98;;;;;;;13.44;80.69;101136.36;1749721;80;21093;-85
2022/10/23 01:18:03;;;;;;;19.27;12.63;;;;;;;13.30;80.80;101135.67;1740706;80;21073;-85
2022/10/23 01:20:48;;;;;;;32.40;19.82;;;;;;;13.16;80.87;101146.38;1773802;80;23057;-85
2022/10/23 01:23:55;;;;;;;25.57;15.23;;;;;;;13.08;81.25;101150.16;1743927;80;21046;-85
2022/10/23 01:26:53;;;;;;;20.90;12.35;;;;;;;13.09;81.70;101151.06;1738966;80;21062;-85
2022/10/23 01:29:31;;;;;;;23.12;12.80;;;;;;;13.15;82.05;101152.07;1774121;79;22062;-85
2022/10/23 01:32:05;;;;;;;21.97;11.43;;;;;;;13.22;82.19;101147.81;1739814;81;21136;-85
2022/10/23 01:34:55;;;;;;;22.58;12.50;;;;;;;13.27;82.23;101141.28;1634909;85;21851;-85
2022/10/23 01:37:30;;;;;;;21.90;13.43;;;;;;;13.32;82.31;101139.67;1667779;84;21135;-85
2022/10/23 01:39:59;;;;;;;18.75;12.30;;;;;;;13.37;82.31;101139.34;1656705;84;21151;-86
2022/10/23 01:42:31;;;;;;;18.50;12.35;;;;;;;13.40;82.30;101135.41;1658101;84;21134;-86
2022/10/23 01:45:08;;;;;;;19.48;11.73;;;;;;;13.36;82.06;101138.45;1656686;84;21162;-85
2022/10/23 01:47:35;;;;;;;17.35;11.40;;;;;;;13.26;81.79;101140.41;1655545;84;21881;-86
2022/10/23 01:50:04;;;;;;;22.27;12.20;;;;;;;13.14;81.77;101144.14;1656803;84;21134;-86
2022/10/23 01:52:31;;;;;;;21.17;13.38;;;;;;;13.08;81.96;101144.87;1656902;84;21027;-86
2022/10/23 01:54:59;;;;;;;25.32;15.15;;;;;;;13.06;82.23;101143.06;1656739;84;21111;-86
2022/10/23 01:57:28;;;;;;;25.48;17.07;;;;;;;13.07;82.42;101147.50;1658886;84;21600;-86
2022/10/23 02:00:05;;;;;;;34.30;18.60;;;;;;;13.09;82.53;101144.46;1658634;84;21737;-86
2022/10/23 02:02:32;;;;;;;31.75;17.67;;;;;;;13.10;82.53;101141.86;1657447;84;21115;-86
2022/10/23 02:05:06;;;;;;;30.50;15.05;;;;;;;13.07;82.36;101140.89;1641209;84;21120;-86
2022/10/23 02:07:34;;;;;;;32.25;16.77;;;;;;;12.99;82.22;101136.77;1655858;84;21099;-86
2022/10/23 02:10:03;;;;;;;34.00;16.77;;;;;;;12.90;82.21;101132.61;1656703;84;21119;-86
2022/10/23 02:12:41;;;;;;;26.60;15.40;;;;;;;12.81;82.11;101137.25;1681903;81;23150;-86
2022/10/23 02:15:13;;;;;;;29.57;15.23;;;;;;;12.72;82.18;101139.69;1724607;82;21074;-85
2022/10/23 02:18:25;;;;;;;25.23;15.98;;;;;;;12.63;82.31;101139.04;1726095;82;20998;-86
2022/10/23 02:21:11;;;;;;;52.75;31.20;;;;;;;12.53;82.40;101136.62;1727795;81;21006;-85
2022/10/23 02:23:41;;;;;;;125.80;60.70;;;;;;;12.46;82.54;101134.69;1732207;82;20990;-85
2022/10/23 02:26:19;;;;;;;177.38;97.92;;;;;;;12.40;82.65;101131.91;1747150;81;21708;-85
2022/10/23 02:29:00;;;;;;;226.07;123.78;;;;;;;12.34;82.78;101126.06;1741094;81;21047;-85
2022/10/23 02:31:27;;;;;;;127.47;72.87;;;;;;;12.27;82.88;101130.72;1716098;81;21010;-85
2022/10/23 02:33:54;;;;;;;99.52;57.80;;;;;;;12.22;82.97;101143.83;1754761;81;21202;-85
2022/10/23 02:36:20;;;;;;;89.17;51.35;;;;;;;12.18;83.06;101148.97;1750850;81;20982;-86
2022/10/23 02:38:48;;;;;;;88.27;52.33;;;;;;;12.10;83.08;101146.14;1722958;81;22615;-85
2022/10/23 02:41:34;;;;;;;168.62;98.47;;;;;;;12.05;83.17;101145.16;1750884;81;21065;-85
2022/10/23 02:44:47;;;;;;;151.02;88.40;;;;;;;12.00;83.26;101151.63;1732964;81;21382;-84
2022/10/23 02:47:41;;;;;;;33.78;22.42;;;;;;;11.97;83.40;101144.94;1715543;82;21128;-85
2022/10/23 02:50:54;;;;;;;101.15;56.75;;;;;;;11.94;83.53;101144.88;1718205;81;21595;-85
2022/10/23 02:53:44;;;;;;;49.48;30.17;;;;;;;11.87;83.44;101146.86;1732334;82;21799;-84
2022/10/23 02:56:31;;;;;;;32.35;19.80;;;;;;;11.81;83.45;101152.86;1722460;82;21153;-84
2022/10/23 02:59:23;;;;;;;33.35;20.95;;;;;;;11.75;83.64;101154.03;1722329;82;21133;-85
2022/10/23 03:01:54;;;;;;;30.75;19.90;;;;;;;11.71;83.81;101148.17;1705996;83;21095;-85
2022/10/23 03:04:22;;;;;;;45.10;26.75;;;;;;;11.66;83.89;101148.50;1720903;82;21141;-85
2022/10/23 03:06:50;;;;;;;37.15;21.97;;;;;;;11.63;84.14;101144.45;1723560;82;21767;-85
2022/10/23 03:09:17;;;;;;;37.83;20.95;;;;;;;11.63;84.15;101141.81;1750797;81;21559;-85
2022/10/23 03:11:43;;;;;;;23.98;15.53;;;;;;;11.55;83.98;101136.77;1750730;81;21104;-86
2022/10/23 03:14:12;;;;;;;23.55;16.40;;;;;;;11.51;84.02;101140.19;1750499;81;21144;-86
2022/10/23 03:16:39;;;;;;;25.15;16.30;;;;;;;11.45;83.81;101134.32;1724441;80;21599;-86
2022/10/23 03:19:05;;;;;;;25.52;16.48;;;;;;;11.37;84.00;101141.98;1752290;81;21737;-85
2022/10/23 03:21:32;;;;;;;39.98;21.62;;;;;;;11.33;84.03;101140.12;1752296;81;21521;-86
2022/10/23 03:23:59;;;;;;;72.22;45.20;;;;;;;11.29;84.04;101161.97;1752423;80;21005;-86
2022/10/23 03:26:26;;;;;;;89.30;56.28;;;;;;;11.24;84.11;101150.39;1752583;81;20987;-85
2022/10/23 03:28:52;;;;;;;45.05;28.92;;;;;;;11.24;84.31;101154.34;1752570;81;21053;-85
2022/10/23 03:31:19;;;;;;;40.03;27.48;;;;;;;11.27;84.48;101145.23;1752650;81;21712;-86
2022/10/23 03:33:46;;;;;;;33.75;25.00;;;;;;;11.30;84.40;101153.23;1742536;81;21006;-85
2022/10/23 03:36:13;;;;;;;33.55;24.30;;;;;;;11.35;84.63;101152.03;1721665;83;21052;-86
2022/10/23 03:38:40;;;;;;;26.60;17.57;;;;;;;11.41;84.69;101149.55;1702857;82;21009;-85
2022/10/23 03:41:07;;;;;;;30.57;20.62;;;;;;;11.51;84.98;101153.36;1767677;80;21473;-84
2022/10/23 03:43:34;;;;;;;22.75;15.85;;;;;;;11.58;84.91;101150.94;1738761;82;21747;-85
2022/10/23 03:46:01;;;;;;;22.32;15.68;;;;;;;11.65;84.80;101158.57;1738469;82;21886;-85
2022/10/23 03:48:28;;;;;;;25.08;17.52;;;;;;;11.69;84.79;101156.47;1697819;82;21006;-86
2022/10/23 03:50:54;;;;;;;34.73;22.15;;;;;;;11.73;84.63;101158.77;1717923;82;20996;-85
2022/10/23 03:53:21;;;;;;;25.82;17.90;;;;;;;11.76;84.56;101162.39;1735918;81;21464;-86
2022/10/23 03:55:48;;;;;;;26.68;17.42;;;;;;;11.77;84.63;101158.91;1738476;82;22533;-85
2022/10/23 03:58:15;;;;;;;27.62;19.37;;;;;;;11.82;84.59;101165.21;1714781;82;21015;-85
2022/10/23 04:00:43;;;;;;;24.98;17.48;;;;;;;11.84;84.60;101162.59;1712054;82;21379;-86
2022/10/23 04:03:10;;;;;;;28.52;18.67;;;;;;;11.90;84.68;101166.77;1716641;81;21453;-86
2022/10/23 04:05:37;;;;;;;21.85;16.12;;;;;;;11.98;84.72;101168.28;1692679;82;21014;-88
2022/10/23 04:08:04;;;;;;;23.57;15.63;;;;;;;12.01;84.54;101174.53;1738513;82;22534;-85
2022/10/23 04:10:31;;;;;;;22.75;14.58;;;;;;;12.04;84.52;101171.95;1717568;81;21031;-85
2022/10/23 04:12:58;;;;;;;21.05;14.00;;;;;;;12.10;84.52;101172.97;1738407;81;21544;-86
2022/10/23 04:15:25;;;;;;;21.65;13.55;;;;;;;12.14;84.55;101171.75;1738608;81;20991;-85
2022/10/23 04:17:52;;;;;;;19.35;13.38;;;;;;;12.19;84.51;101168.81;1687727;83;21047;-85
2022/10/23 04:20:18;;;;;;;18.12;12.82;;;;;;;12.22;84.45;101168.90;1725567;82;21745;-85
2022/10/23 04:22:45;;;;;;;16.23;12.63;;;;;;;12.23;84.42;101169.78;1738250;82;21442;-84
2022/10/23 04:25:15;;;;;;;17.60;12.28;;;;;;;12.25;84.41;101170.70;1738519;81;21031;-86
2022/10/23 04:27:42;;;;;;;17.65;12.98;;;;;;;12.29;84.39;101175.20;1717607;82;22046;-85
2022/10/23 04:30:10;;;;;;;16.67;12.78;;;;;;;12.32;84.44;101175.73;1737083;82;21088;-86
2022/10/23 04:32:38;;;;;;;21.55;15.20;;;;;;;12.34;84.37;101171.38;1712198;82;21738;-86
2022/10/23 04:35:06;;;;;;;32.30;20.62;;;;;;;12.37;84.34;101176.70;1753072;80;21029;-86
2022/10/23 04:37:32;;;;;;;22.02;16.70;;;;;;;12.36;84.29;101177.14;1738887;82;20999;-87
2022/10/23 04:39:59;;;;;;;22.75;16.12;;;;;;;12.41;84.38;101177.28;1738664;82;21632;-86
2022/10/23 04:42:26;;;;;;;21.80;15.95;;;;;;;12.43;84.39;101178.20;1739085;81;20995;-85
2022/10/23 04:44:53;;;;;;;22.32;14.85;;;;;;;12.48;84.40;101179.22;1731497;82;22473;-85
2022/10/23 04:47:21;;;;;;;21.20;13.80;;;;;;;12.50;84.29;101185.83;1690586;82;21502;-85
2022/10/23 04:49:48;;;;;;;19.10;13.35;;;;;;;12.51;84.33;101181.91;1689501;84;21126;-85
2022/10/23 04:52:14;;;;;;;15.65;13.03;;;;;;;12.52;84.31;101182.79;1682442;84;21112;-86
2022/10/23 04:54:48;;;;;;;17.45;12.80;;;;;;;12.56;84.40;101185.55;1682186;83;21105;-85
2022/10/23 04:57:15;;;;;;;17.75;12.93;;;;;;;12.59;84.28;101183.41;1679545;84;21951;-84
2022/10/23 04:59:42;;;;;;;22.25;13.45;;;;;;;12.60;84.31;101173.32;1683998;83;21483;-84
2022/10/23 05:02:09;;;;;;;16.67;12.95;;;;;;;12.61;84.19;101173.36;1685051;84;21169;-85
2022/10/23 05:04:36;;;;;;;20.92;13.90;;;;;;;12.57;83.95;101171.48;1684438;84;21082;-84
2022/10/23 05:07:04;;;;;;;19.65;13.55;;;;;;;12.52;83.97;101170.50;1681497;84;21155;-83
2022/10/23 05:09:30;;;;;;;20.05;12.90;;;;;;;12.51;84.10;101173.10;1681187;84;21811;-84
2022/10/23 05:11:57;;;;;;;26.73;18.55;;;;;;;12.53;84.13;101181.95;1681534;84;21092;-84
2022/10/23 05:14:42;;;;;;;24.50;16.10;;;;;;;12.53;84.19;101179.31;1680241;83;21096;-84
2022/10/23 05:17:27;;;;;;;22.62;15.90;;;;;;;12.54;84.23;101180.67;1680664;84;21034;-84
2022/10/23 05:20:04;;;;;;;18.77;13.93;;;;;;;12.55;84.16;101170.55;1639117;87;20983;-84
2022/10/23 05:22:35;;;;;;;20.08;14.00;;;;;;;12.55;84.13;101163.95;1638994;86;21059;-84
2022/10/23 05:25:03;;;;;;;20.77;14.40;;;;;;;12.52;84.00;101170.50;1639222;86;21458;-84
2022/10/23 05:27:30;;;;;;;22.45;15.68;;;;;;;12.50;83.96;101171.30;1639306;86;21064;-84
2022/10/23 05:29:56;;;;;;;19.45;14.78;;;;;;;12.48;84.07;101176.98;1639476;86;21019;-84
2022/10/23 05:32:24;;;;;;;19.23;14.03;;;;;;;12.48;84.03;101181.86;1639575;86;21101;-84
2022/10/23 05:34:51;;;;;;;22.20;15.65;;;;;;;12.48;84.15;101184.50;1628626;86;21764;-84
2022/10/23 05:37:18;;;;;;;22.80;15.05;;;;;;;12.50;84.33;101181.46;1630588;87;21039;-84
2022/10/23 05:39:44;;;;;;;24.87;15.80;;;;;;;12.53;84.43;101180.19;1630501;86;21103;-85
2022/10/23 05:42:11;;;;;;;24.52;15.45;;;;;;;12.55;84.39;101177.16;1605752;87;21667;-89
2022/10/23 05:44:38;;;;;;;26.87;16.77;;;;;;;12.60;84.47;101182.56;1627272;86;21027;-83
2022/10/23 05:47:05;;;;;;;27.22;15.90;;;;;;;12.64;84.49;101185.73;1630456;87;22558;-83
2022/10/23 05:49:32;;;;;;;27.45;17.87;;;;;;;12.56;84.61;101159.15;1592620;87;21067;-83
2022/10/23 05:51:59;;;;;;;24.87;16.75;;;;;;;12.76;84.66;101186.44;1627055;86;21562;-82
2022/10/23 05:54:26;;;;;;;26.45;17.52;;;;;;;12.80;84.60;101180.36;1630696;86;21547;-82
2022/10/23 05:56:52;;;;;;;27.17;17.82;;;;;;;12.84;84.79;101177.84;1647059;83;21010;-82
2022/10/23 05:59:19;;;;;;;25.97;19.40;;;;;;;12.89;84.72;101177.05;1688642;83;21731;-82
2022/10/23 06:01:46;;;;;;;28.27;18.70;;;;;;;12.94;84.83;101176.30;1685936;83;20919;-82
2022/10/23 06:04:13;;;;;;;28.95;19.62;;;;;;;12.99;84.91;101179.94;1691346;82;21011;-83
2022/10/23 06:06:40;;;;;;;28.70;19.50;;;;;;;13.07;84.99;101185.83;1688696;83;21011;-82
2022/10/23 06:09:06;;;;;;;34.48;20.50;;;;;;;13.14;84.99;101178.50;1688506;83;21069;-83
2022/10/23 06:11:33;;;;;;;31.23;21.15;;;;;;;13.17;85.15;101179.42;1688562;83;21741;-83
2022/10/23 06:14:00;;;;;;;35.83;21.17;;;;;;;13.26;85.29;101179.17;1688530;83;20994;-86
2022/10/23 06:16:27;;;;;;;35.23;22.55;;;;;;;13.31;85.29;101177.13;1699322;83;21447;-83
2022/10/23 06:19:11;;;;;;;31.55;21.87;;;;;;;13.36;85.29;101182.48;1705838;82;21046;-82
2022/10/23 06:21:39;;;;;;;39.40;24.00;;;;;;;13.41;85.50;101183.48;1684531;83;21034;-82
2022/10/23 06:24:06;;;;;;;39.25;23.45;;;;;;;13.47;85.55;101179.63;1673265;83;22648;-85
2022/10/23 06:26:36;;;;;;;38.30;23.25;;;;;;;13.56;85.62;101178.94;1701446;83;21076;-82
2022/10/23 06:29:02;;;;;;;37.55;22.87;;;;;;;13.63;85.74;101176.88;1700231;83;21535;-82
2022/10/23 06:31:29;;;;;;;38.65;23.80;;;;;;;13.74;85.91;101176.65;1704018;83;21620;-82
2022/10/23 06:33:56;;;;;;;37.63;23.07;;;;;;;13.86;85.98;101175.97;1716177;80;21598;-82
2022/10/23 06:36:22;;;;;;;38.58;23.52;;;;;;;13.95;85.95;101172.17;1756195;80;22788;-82
2022/10/23 06:38:52;;;;;;;44.30;25.43;;;;;;;14.08;86.03;101173.73;1750132;80;21107;-82
2022/10/23 06:41:23;;;;;;;40.08;25.30;;;;;;;14.17;85.86;101175.18;1697852;82;21081;-82
2022/10/23 06:43:52;;;;;;;43.00;26.12;;;;;;;14.26;85.88;101178.42;1711059;83;21471;-82
2022/10/23 06:46:22;;;;;;;43.65;25.50;;;;;;;14.36;85.84;101183.03;1709602;83;21047;-82
2022/10/23 06:48:50;;;;;;;42.88;25.35;;;;;;;14.45;85.79;101184.50;1703475;82;22463;-82
2022/10/23 06:51:21;;;;;;;37.38;23.95;;;;;;;14.51;85.69;101185.91;1683182;83;21148;-82
2022/10/23 06:53:48;;;;;;;41.55;25.15;;;;;;;14.56;85.64;101185.56;1700508;83;21122;-82
2022/10/23 06:56:16;;;;;;;38.13;23.45;;;;;;;14.62;85.62;101190.51;1715346;82;21539;-82
2022/10/23 06:58:44;;;;;;;41.40;23.92;;;;;;;14.71;85.63;101195.51;1681005;83;21089;-82
2022/10/23 07:01:16;;;;;;;40.67;23.57;;;;;;;14.78;85.54;101191.20;1707207;82;22290;-82
2022/10/23 07:03:43;;;;;;;38.88;24.98;;;;;;;14.85;85.50;101186.45;1619165;84;21018;-81
2022/10/23 07:06:09;;;;;;;39.58;25.45;;;;;;;14.94;85.51;101183.94;1707483;81;21010;-82
2022/10/23 07:08:37;;;;;;;42.00;24.98;;;;;;;15.02;85.42;101183.16;1738096;81;21026;-83
2022/10/23 07:11:09;;;;;;;41.48;25.00;;;;;;;15.07;85.22;101182.36;1711013;82;22034;-83
2022/10/23 07:13:35;;;;;;;36.45;22.60;;;;;;;15.09;85.07;101184.59;1723052;81;21754;-83
2022/10/23 07:16:16;;;;;;;33.73;23.12;;;;;;;15.07;84.90;101190.72;1701451;83;20906;-83
2022/10/23 07:18:42;;;;;;;32.23;21.52;;;;;;;15.05;84.79;101197.32;1695018;83;21013;-84
2022/10/23 07:21:09;;;;;;;30.25;21.30;;;;;;;15.03;84.79;101200.39;1671845;84;21014;-83
2022/10/23 07:23:36;;;;;;;31.87;20.97;;;;;;;15.01;84.69;101201.25;1722278;83;21046;-81
2022/10/23 07:26:10;;;;;;;34.45;22.10;;;;;;;14.99;84.68;101199.02;1715142;83;21784;-82
2022/10/23 07:28:40;;;;;;;30.08;21.15;;;;;;;14.98;84.66;101194.16;1701690;83;21494;-85
2022/10/23 07:31:08;;;;;;;35.75;21.90;;;;;;;14.97;84.75;101191.91;1730878;81;21026;-87
2022/10/23 07:33:35;;;;;;;36.75;21.82;;;;;;;15.00;84.87;101185.78;1712740;82;21087;-88
2022/10/23 07:36:07;;;;;;;28.98;21.00;;;;;;;15.05;84.83;101185.83;1740103;81;21009;-87
2022/10/23 07:38:34;;;;;;;29.85;21.27;;;;;;;15.10;84.98;101178.39;1740519;81;21890;-86
2022/10/23 07:41:00;;;;;;;31.12;21.37;;;;;;;15.23;84.98;101192.71;1736462;81;21063;-83
2022/10/23 07:43:30;;;;;;;32.13;22.58;;;;;;;15.31;84.87;101191.48;1740561;81;21091;-83
2022/10/23 07:45:57;;;;;;;31.73;21.70;;;;;;;15.37;84.67;101198.18;1724866;81;21076;-85
2022/10/23 07:48:26;;;;;;;32.73;21.48;;;;;;;15.41;84.68;101199.11;1731207;81;21553;-86
2022/10/23 07:50:56;;;;;;;30.97;20.27;;;;;;;15.51;84.68;101190.41;1713947;81;21792;-86
2022/10/23 07:53:24;;;;;;;31.12;19.98;;;;;;;15.61;84.58;101186.97;1721940;81;21089;-87
2022/10/23 07:56:01;;;;;;;24.82;18.00;;;;;;;15.79;84.62;101181.47;1730341;81;21674;-87
2022/10/23 07:58:27;;;;;;;26.90;17.92;;;;;;;16.01;84.63;101186.12;1725303;81;21050;-84
2022/10/23 08:00:57;;;;;;;20.32;16.35;;;;;;;16.25;84.44;101181.44;1725634;81;21093;-83
2022/10/23 08:03:29;;;;;;;23.70;15.58;;;;;;;16.44;84.09;101181.59;1726832;81;21733;-85
2022/10/23 08:05:56;;;;;;;24.12;17.27;;;;;;;16.56;83.56;101184.80;1747966;80;21792;-83
2022/10/23 08:08:23;;;;;;;22.15;15.50;;;;;;;16.63;83.32;101186.61;1740468;80;21088;-83
2022/10/23 08:10:50;;;;;;;22.93;15.10;;;;;;;16.64;82.93;101185.29;1722724;81;22107;-83
2022/10/23 08:13:19;;;;;;;20.92;14.05;;;;;;;16.63;82.60;101190.59;1731898;81;21065;-83
2022/10/23 08:15:46;;;;;;;19.12;14.05;;;;;;;16.56;82.40;101190.13;1735749;81;21707;-83
2022/10/23 08:18:13;;;;;;;19.52;14.98;;;;;;;16.47;82.09;101193.14;1710205;82;21022;-83
2022/10/23 08:20:41;;;;;;;19.82;14.13;;;;;;;16.37;82.03;101186.41;1713953;81;21003;-83
2022/10/23 08:23:08;;;;;;;18.27;14.15;;;;;;;16.29;81.99;101199.63;1740792;81;21022;-83
2022/10/23 08:25:39;;;;;;;19.37;14.45;;;;;;;16.25;81.97;101198.70;1741359;81;20972;-83
2022/10/23 08:28:05;;;;;;;18.23;14.03;;;;;;;16.21;81.96;101192.92;1698296;82;21723;-83
2022/10/23 08:30:32;;;;;;;19.37;15.03;;;;;;;16.23;82.16;101196.48;1728631;81;21474;-83
2022/10/23 08:32:58;;;;;;;23.25;15.72;;;;;;;16.31;82.18;101201.85;1738245;81;20994;-83
2022/10/23 08:35:26;;;;;;;20.57;15.63;;;;;;;16.38;82.19;101202.36;1729719;80;21066;-83
2022/10/23 08:37:53;;;;;;;28.98;24.65;;;;;;;16.44;81.95;101195.80;1730105;81;21094;-83
2022/10/23 08:40:23;;;;;;;20.85;18.65;;;;;;;16.48;81.82;101204.69;1723465;81;21714;-83
2022/10/23 08:43:07;;;;;;;23.35;17.45;;;;;;;16.53;81.79;101208.24;1724561;81;22227;-84
2022/10/23 08:45:44;;;;;;;18.37;13.62;;;;;;;16.59;81.71;101213.63;1626604;82;21105;-84
2022/10/23 08:48:25;;;;;;;15.35;11.88;;;;;;;16.64;81.48;101211.88;1723755;81;21521;-84
2022/10/23 08:51:06;;;;;;;15.93;11.28;;;;;;;16.68;81.42;101216.33;1726131;81;22322;-81
2022/10/23 08:53:40;;;;;;;13.68;10.63;;;;;;;16.78;81.50;101216.39;1723820;81;21749;-81
2022/10/23 08:56:29;;;;;;;10.75;8.93;;;;;;;16.89;81.24;101212.98;1726336;81;21088;-87
2022/10/23 08:59:21;;;;;;;15.13;10.55;;;;;;;17.02;81.17;101209.93;1681328;81;21121;-82
2022/10/23 09:01:54;;;;;;;7.97;6.62;;;;;;;17.15;80.72;101216.66;1724371;81;21137;-81
2022/10/23 09:04:21;;;;;;;11.73;7.10;;;;;;;17.24;80.34;101216.72;1722998;80;21124;-81
2022/10/23 09:06:56;;;;;;;7.17;5.65;;;;;;;17.32;79.99;101217.63;1731922;80;21726;-81
2022/10/23 09:09:50;;;;;;;5.72;4.72;;;;;;;17.40;80.03;101222.98;1744075;80;21496;-83
2022/10/23 09:12:20;;;;;;;7.28;5.08;;;;;;;17.48;79.62;101225.25;1738062;80;21133;-83
2022/10/23 09:15:13;;;;;;;4.72;3.90;;;;;;;17.57;79.49;101224.38;1734356;80;21086;-83
2022/10/23 09:17:42;;;;;;;6.12;4.17;;;;;;;17.61;79.14;101225.75;1739969;81;21707;-85
2022/10/23 09:20:34;;;;;;;7.08;4.53;;;;;;;17.66;78.94;101229.33;1730477;81;21740;-83
2022/10/23 09:23:05;;;;;;;6.17;4.15;;;;;;;17.74;78.70;101224.02;1734517;81;21101;-83
2022/10/23 09:25:38;;;;;;;5.12;3.98;;;;;;;17.87;78.68;101227.64;1734676;80;21116;-83
2022/10/23 09:28:04;;;;;;;7.12;5.12;;;;;;;18.03;78.48;101231.22;1738901;80;21008;-83
2022/10/23 09:30:41;;;;;;;5.55;4.05;;;;;;;18.09;77.94;101238.33;1739300;80;21098;-83
2022/10/23 09:33:20;;;;;;;7.87;4.08;;;;;;;18.06;77.47;101236.11;1745327;81;21768;-83
2022/10/23 09:36:05;;;;;;;8.63;4.15;;;;;;;18.00;77.43;101236.11;1763603;79;21487;-83
2022/10/23 09:38:49;;;;;;;4.22;3.52;;;;;;;17.94;77.20;101236.07;1763002;79;21057;-83
2022/10/23 09:41:29;;;;;;;6.55;4.85;;;;;;;17.92;77.44;101240.51;1763765;80;21045;-83
2022/10/23 09:44:25;;;;;;;7.15;4.58;;;;;;;17.92;77.25;101244.95;1732775;81;21009;-83
2022/10/23 09:47:17;;;;;;;4.55;3.37;;;;;;;17.90;77.28;101249.39;1770648;79;21994;-83
2022/10/23 09:49:40;;;;;;;8.13;3.30;;;;;;;17.78;77.04;101250.22;1764113;79;20998;-83
2022/10/23 09:52:21;;;;;;;5.92;3.08;;;;;;;17.67;76.96;101256.83;1767352;79;21014;-83
2022/10/23 09:54:55;;;;;;;7.47;4.60;;;;;;;17.53;76.87;101255.87;1719100;81;21082;-83
2022/10/23 09:57:42;;;;;;;5.55;2.62;;;;;;;17.39;76.93;101253.16;1750833;79;21097;-83
2022/10/23 10:00:25;;;;;;;3.52;2.20;;;;;;;17.28;76.86;101257.08;1741510;80;21094;-83
2022/10/23 10:03:23;;;;;;;;;;;;;;;17.19;76.99;101257.94;1765350;80;21085;-83
2022/10/23 10:06:01;;;;;;;2.70;1.70;;;;;;;17.19;77.09;101260.59;1774767;80;20908;-83
2022/10/23 10:08:40;;;;;;;4.20;2.67;;;;;;;17.21;77.16;101252.60;1755259;79;21450;-83
2022/10/23 10:11:40;;;;;;;5.28;2.35;;;;;;;17.31;77.23;101256.23;1761062;79;21068;-84
2022/10/23 10:14:47;;;;;;;5.47;3.42;;;;;;;17.37;77.20;101253.14;1753538;80;21769;-83
2022/10/23 10:17:36;;;;;;;4.40;2.83;;;;;;;17.47;77.11;101253.66;1756068;80;20991;-83
2022/10/23 10:20:27;;;;;;;8.55;4.67;;;;;;;17.53;76.87;101259.86;1767253;80;21552;-83
2022/10/23 10:23:18;;;;;;;6.28;3.08;;;;;;;17.53;76.74;101260.78;1770478;80;21082;-83
2022/10/23 10:26:18;;;;;;;10.38;6.10;;;;;;;17.57;76.72;101261.65;1764006;79;21037;-83
2022/10/23 10:29:28;;;;;;;15.32;8.05;;;;;;;17.62;76.74;101260.78;1750031;80;21735;-83
2022/10/23 10:32:24;;;;;;;8.13;4.00;;;;;;;17.67;76.58;101258.16;1707850;81;20899;-83
2022/10/23 10:35:05;;;;;;;7.08;4.95;;;;;;;17.66;76.30;101257.70;1743829;79;21054;-83
2022/10/23 10:38:10;;;;;;;7.35;4.08;;;;;;;17.73;76.18;101262.61;1761017;79;21017;-83
2022/10/23 10:41:12;;;;;;;6.65;3.62;;;;;;;17.79;75.93;101258.64;1759856;80;20990;-83
2022/10/23 10:44:13;;;;;;;4.62;3.17;;;;;;;17.85;75.54;101272.03;1753530;80;21752;-83
2022/10/23 10:47:06;;;;;;;6.10;3.22;;;;;;;17.79;75.31;101274.61;1761409;80;20982;-83
2022/10/23 10:50:08;;;;;;;6.70;2.65;;;;;;;17.68;74.89;101271.90;1764198;80;21024;-83
2022/10/23 10:53:03;;;;;;;5.12;2.70;;;;;;;17.57;74.85;101272.30;1749850;80;21430;-83
2022/10/23 10:55:34;;;;;;;8.05;4.12;;;;;;;17.42;74.62;101275.80;1758616;80;21129;-83
2022/10/23 10:58:36;;;;;;;8.28;3.37;;;;;;;17.34;74.79;101270.86;1758690;80;22826;-83
2022/10/23 11:01:05;;;;;;;4.12;3.10;;;;;;;17.29;74.88;101265.08;1748459;80;21587;-83
2022/10/23 11:03:48;;;;;;;3.77;2.83;;;;;;;17.26;74.93;101275.69;1748059;80;21033;-83
2022/10/23 11:06:21;;;;;;;15.90;10.48;;;;;;;17.23;74.97;101276.11;1765623;80;20993;-83
2022/10/23 11:08:50;;;;;;;11.60;5.30;;;;;;;17.16;74.80;101275.65;1718867;81;21100;-83
2022/10/23 11:11:27;;;;;;;9.13;4.50;;;;;;;17.11;74.86;101278.27;1762242;79;21878;-83
2022/10/23 11:13:54;;;;;;;21.87;16.62;;;;;;;17.07;74.98;101273.81;1759207;80;21024;-83
2022/10/23 11:16:38;;;;;;;9.35;4.70;;;;;;;17.03;74.95;101278.22;1762872;80;21162;-83
2022/10/23 11:19:31;;;;;;;6.30;4.00;;;;;;;16.97;74.72;101281.26;1767027;80;21075;-83
2022/10/23 11:22:12;;;;;;;5.50;2.65;;;;;;;16.82;74.56;101272.31;1762806;79;21708;-83
2022/10/23 11:25:20;;;;;;;7.22;3.40;;;;;;;16.69;74.70;101282.36;1761497;80;23040;-83
2022/10/23 11:28:23;;;;;;;6.28;2.80;;;;;;;16.50;74.65;101258.73;1751192;80;21094;-83
2022/10/23 11:31:34;;;;;;;4.12;2.35;;;;;;;16.46;74.69;101278.15;1764030;80;21525;-86
2022/10/23 11:34:30;;;;;;;9.03;2.83;;;;;;;16.42;74.85;101266.63;1769160;80;21081;-83
2022/10/23 11:37:03;;;;;;;5.12;2.58;;;;;;;16.49;74.85;101268.44;1733342;81;21380;-83
2022/10/23 11:39:39;;;;;;;5.50;2.85;;;;;;;16.66;75.06;101270.36;1759385;81;22565;-83
2022/10/23 11:42:09;;;;;;;5.53;2.75;;;;;;;16.85;74.97;101270.98;1710034;82;21034;-83
2022/10/23 11:44:48;;;;;;;12.60;8.85;;;;;;;16.99;74.75;101269.77;1740726;81;20994;-83